sensor_id;sensor_type;location;lat;lon;timestamp;P1;durP1;ratioP1;P2;durP2;ratioP2
8919;SDS011;4495;42.644;23.274;2024-01-11T00:02:04;10.75;;;5.07;;
8919;SDS011;4495;42.644;23.274;2024-01-11T00:04:29;7.90;;;3.83;;
8919;SDS011;4495;42.644;23.274;2024-01-11T00:06:55;11.48;;;5.28;;
8919;SDS011;4495;42.644;23.274;2024-01-11T00:09:20;7.05;;;3.85;;
8919;SDS011;4495;42.644;23.274;2024-01-11T00:11:46;8.93;;;4.10;;
8919;SDS011;4495;42.644;23.274;2024-01-11T00:14:11;8.40;;;2.95;;
8919;SDS011;4495;42.644;23.274;2024-01-11T00:16:36;4.93;;;3.42;;
8919;SDS011;4495;42.644;23.274;2024-01-11T00:19:02;2.63;;;1.95;;
8919;SDS011;4495;42.644;23.274;2024-01-11T00:21:27;11.98;;;6.00;;
8919;SDS011;4495;42.644;23.274;2024-01-11T00:23:52;5.60;;;4.10;;
8919;SDS011;4495;42.644;23.274;2024-01-11T00:26:18;6.18;;;3.90;;
8919;SDS011;4495;42.644;23.274;2024-01-11T00:28:44;6.78;;;3.47;;
8919;SDS011;4495;42.644;23.274;2024-01-11T00:31:10;9.63;;;4.00;;
8919;SDS011;4495;42.644;23.274;2024-01-11T00:33:35;5.15;;;4.15;;
8919;SDS011;4495;42.644;23.274;2024-01-11T00:36:01;9.98;;;4.60;;
8919;SDS011;4495;42.644;23.274;2024-01-11T00:38:26;9.48;;;5.28;;
8919;SDS011;4495;42.644;23.274;2024-01-11T00:40:52;8.25;;;3.33;;
8919;SDS011;4495;42.644;23.274;2024-01-11T00:43:17;7.38;;;4.28;;
8919;SDS011;4495;42.644;23.274;2024-01-11T00:45:43;9.93;;;5.10;;
8919;SDS011;4495;42.644;23.274;2024-01-11T00:48:11;7.68;;;3.72;;
8919;SDS011;4495;42.644;23.274;2024-01-11T00:50:36;7.15;;;5.03;;
8919;SDS011;4495;42.644;23.274;2024-01-11T00:53:02;13.40;;;6.32;;
8919;SDS011;4495;42.644;23.274;2024-01-11T00:55:28;11.20;;;6.05;;
8919;SDS011;4495;42.644;23.274;2024-01-11T00:57:53;10.02;;;5.90;;
8919;SDS011;4495;42.644;23.274;2024-01-11T01:00:19;10.25;;;5.45;;
8919;SDS011;4495;42.644;23.274;2024-01-11T01:02:44;6.88;;;3.72;;
8919;SDS011;4495;42.644;23.274;2024-01-11T01:05:10;10.23;;;6.50;;
8919;SDS011;4495;42.644;23.274;2024-01-11T01:07:35;14.27;;;5.10;;
8919;SDS011;4495;42.644;23.274;2024-01-11T01:10:01;14.43;;;4.72;;
8919;SDS011;4495;42.644;23.274;2024-01-11T01:12:27;3.40;;;1.70;;
8919;SDS011;4495;42.644;23.274;2024-01-11T01:14:53;5.20;;;2.53;;
8919;SDS011;4495;42.644;23.274;2024-01-11T01:17:19;10.18;;;5.05;;
8919;SDS011;4495;42.644;23.274;2024-01-11T01:19:44;9.57;;;4.72;;
8919;SDS011;4495;42.644;23.274;2024-01-11T01:22:11;12.07;;;5.43;;
8919;SDS011;4495;42.644;23.274;2024-01-11T01:24:36;6.70;;;3.67;;
8919;SDS011;4495;42.644;23.274;2024-01-11T01:27:02;2.60;;;1.98;;
8919;SDS011;4495;42.644;23.274;2024-01-11T01:29:27;3.70;;;2.22;;
8919;SDS011;4495;42.644;23.274;2024-01-11T01:31:53;4.32;;;2.10;;
8919;SDS011;4495;42.644;23.274;2024-01-11T01:34:19;11.95;;;4.28;;
8919;SDS011;4495;42.644;23.274;2024-01-11T01:36:44;14.38;;;4.57;;
8919;SDS011;4495;42.644;23.274;2024-01-11T01:39:09;4.43;;;3.20;;
8919;SDS011;4495;42.644;23.274;2024-01-11T01:41:35;5.57;;;2.63;;
8919;SDS011;4495;42.644;23.274;2024-01-11T01:44:00;9.52;;;4.68;;
8919;SDS011;4495;42.644;23.274;2024-01-11T01:46:26;6.22;;;3.80;;
8919;SDS011;4495;42.644;23.274;2024-01-11T01:48:53;6.72;;;3.60;;
8919;SDS011;4495;42.644;23.274;2024-01-11T01:51:20;10.50;;;4.38;;
8919;SDS011;4495;42.644;23.274;2024-01-11T01:53:47;9.88;;;4.45;;
8919;SDS011;4495;42.644;23.274;2024-01-11T01:56:14;10.10;;;5.40;;
8919;SDS011;4495;42.644;23.274;2024-01-11T01:58:40;8.10;;;3.80;;
8919;SDS011;4495;42.644;23.274;2024-01-11T02:01:08;8.15;;;2.72;;
8919;SDS011;4495;42.644;23.274;2024-01-11T02:03:33;6.72;;;3.55;;
8919;SDS011;4495;42.644;23.274;2024-01-11T02:06:00;8.93;;;4.50;;
8919;SDS011;4495;42.644;23.274;2024-01-11T02:08:27;7.40;;;4.32;;
8919;SDS011;4495;42.644;23.274;2024-01-11T02:10:54;12.15;;;4.68;;
8919;SDS011;4495;42.644;23.274;2024-01-11T02:13:19;5.78;;;3.72;;
8919;SDS011;4495;42.644;23.274;2024-01-11T02:15:46;6.18;;;3.25;;
8919;SDS011;4495;42.644;23.274;2024-01-11T02:18:11;6.40;;;3.45;;
8919;SDS011;4495;42.644;23.274;2024-01-11T02:20:37;3.45;;;2.05;;
8919;SDS011;4495;42.644;23.274;2024-01-11T02:23:05;9.75;;;4.38;;
8919;SDS011;4495;42.644;23.274;2024-01-11T02:25:33;2.40;;;1.45;;
8919;SDS011;4495;42.644;23.274;2024-01-11T02:27:58;5.93;;;3.17;;
8919;SDS011;4495;42.644;23.274;2024-01-11T02:30:23;7.72;;;3.30;;
8919;SDS011;4495;42.644;23.274;2024-01-11T02:32:50;6.93;;;4.05;;
8919;SDS011;4495;42.644;23.274;2024-01-11T02:37:43;6.65;;;2.25;;
8919;SDS011;4495;42.644;23.274;2024-01-11T02:40:09;6.03;;;3.13;;
8919;SDS011;4495;42.644;23.274;2024-01-11T02:42:35;7.20;;;3.70;;
8919;SDS011;4495;42.644;23.274;2024-01-11T02:45:02;6.75;;;3.10;;
8919;SDS011;4495;42.644;23.274;2024-01-11T02:47:28;5.68;;;3.83;;
8919;SDS011;4495;42.644;23.274;2024-01-11T02:49:54;8.20;;;4.65;;
8919;SDS011;4495;42.644;23.274;2024-01-11T02:52:19;8.57;;;3.28;;
8919;SDS011;4495;42.644;23.274;2024-01-11T02:54:45;5.65;;;3.78;;
8919;SDS011;4495;42.644;23.274;2024-01-11T02:57:10;12.48;;;3.83;;
8919;SDS011;4495;42.644;23.274;2024-01-11T02:59:36;7.85;;;3.65;;
8919;SDS011;4495;42.644;23.274;2024-01-11T03:02:01;8.02;;;3.45;;
8919;SDS011;4495;42.644;23.274;2024-01-11T03:04:27;11.27;;;3.67;;
8919;SDS011;4495;42.644;23.274;2024-01-11T03:06:52;6.05;;;3.38;;
8919;SDS011;4495;42.644;23.274;2024-01-11T03:09:17;6.22;;;3.42;;
8919;SDS011;4495;42.644;23.274;2024-01-11T03:11:43;6.35;;;3.05;;
8919;SDS011;4495;42.644;23.274;2024-01-11T03:14:08;6.25;;;3.05;;
8919;SDS011;4495;42.644;23.274;2024-01-11T03:16:34;8.70;;;2.42;;
8919;SDS011;4495;42.644;23.274;2024-01-11T03:18:59;3.97;;;2.30;;
8919;SDS011;4495;42.644;23.274;2024-01-11T03:21:25;5.72;;;2.60;;
8919;SDS011;4495;42.644;23.274;2024-01-11T03:23:50;5.85;;;2.47;;
8919;SDS011;4495;42.644;23.274;2024-01-11T03:26:16;4.53;;;3.25;;
8919;SDS011;4495;42.644;23.274;2024-01-11T03:28:42;7.03;;;3.83;;
8919;SDS011;4495;42.644;23.274;2024-01-11T03:31:08;11.57;;;4.97;;
8919;SDS011;4495;42.644;23.274;2024-01-11T03:33:34;14.43;;;6.25;;
8919;SDS011;4495;42.644;23.274;2024-01-11T03:36:05;11.32;;;5.45;;
8919;SDS011;4495;42.644;23.274;2024-01-11T03:38:32;4.57;;;2.90;;
8919;SDS011;4495;42.644;23.274;2024-01-11T03:40:57;6.82;;;3.35;;
8919;SDS011;4495;42.644;23.274;2024-01-11T03:43:23;5.00;;;3.00;;
8919;SDS011;4495;42.644;23.274;2024-01-11T03:45:48;10.82;;;4.65;;
8919;SDS011;4495;42.644;23.274;2024-01-11T03:48:13;6.13;;;3.58;;
8919;SDS011;4495;42.644;23.274;2024-01-11T03:50:39;12.65;;;5.88;;
8919;SDS011;4495;42.644;23.274;2024-01-11T03:53:04;11.20;;;5.70;;
8919;SDS011;4495;42.644;23.274;2024-01-11T03:55:29;11.68;;;5.78;;
8919;SDS011;4495;42.644;23.274;2024-01-11T03:57:55;8.77;;;5.28;;
8919;SDS011;4495;42.644;23.274;2024-01-11T04:00:20;12.35;;;5.80;;
8919;SDS011;4495;42.644;23.274;2024-01-11T04:02:45;11.88;;;4.97;;
8919;SDS011;4495;42.644;23.274;2024-01-11T04:05:11;8.82;;;4.53;;
8919;SDS011;4495;42.644;23.274;2024-01-11T04:07:36;4.22;;;2.08;;
8919;SDS011;4495;42.644;23.274;2024-01-11T04:10:02;4.93;;;2.28;;
8919;SDS011;4495;42.644;23.274;2024-01-11T04:12:27;3.25;;;1.98;;
8919;SDS011;4495;42.644;23.274;2024-01-11T04:14:53;4.38;;;2.20;;
8919;SDS011;4495;42.644;23.274;2024-01-11T04:17:18;3.63;;;2.55;;
8919;SDS011;4495;42.644;23.274;2024-01-11T04:19:44;4.07;;;2.28;;
8919;SDS011;4495;42.644;23.274;2024-01-11T04:22:09;7.47;;;2.55;;
8919;SDS011;4495;42.644;23.274;2024-01-11T04:24:35;6.20;;;2.97;;
8919;SDS011;4495;42.644;23.274;2024-01-11T04:27:01;5.63;;;3.17;;
8919;SDS011;4495;42.644;23.274;2024-01-11T04:29:26;8.02;;;4.18;;
8919;SDS011;4495;42.644;23.274;2024-01-11T04:31:51;5.05;;;3.33;;
8919;SDS011;4495;42.644;23.274;2024-01-11T04:34:17;9.05;;;4.75;;
8919;SDS011;4495;42.644;23.274;2024-01-11T04:36:42;5.20;;;2.75;;
8919;SDS011;4495;42.644;23.274;2024-01-11T04:39:08;8.20;;;3.65;;
8919;SDS011;4495;42.644;23.274;2024-01-11T04:41:36;5.70;;;2.90;;
8919;SDS011;4495;42.644;23.274;2024-01-11T04:44:04;7.05;;;3.28;;
8919;SDS011;4495;42.644;23.274;2024-01-11T04:46:30;5.75;;;2.53;;
8919;SDS011;4495;42.644;23.274;2024-01-11T04:48:55;6.88;;;3.03;;
8919;SDS011;4495;42.644;23.274;2024-01-11T04:51:21;4.55;;;2.00;;
8919;SDS011;4495;42.644;23.274;2024-01-11T04:53:47;10.73;;;2.70;;
8919;SDS011;4495;42.644;23.274;2024-01-11T04:56:15;7.35;;;3.03;;
8919;SDS011;4495;42.644;23.274;2024-01-11T04:58:42;20.23;;;8.80;;
8919;SDS011;4495;42.644;23.274;2024-01-11T05:01:12;19.50;;;10.07;;
8919;SDS011;4495;42.644;23.274;2024-01-11T05:03:38;27.75;;;13.15;;
8919;SDS011;4495;42.644;23.274;2024-01-11T05:06:04;24.60;;;13.90;;
8919;SDS011;4495;42.644;23.274;2024-01-11T05:08:29;25.45;;;11.77;;
8919;SDS011;4495;42.644;23.274;2024-01-11T05:10:55;23.27;;;11.98;;
8919;SDS011;4495;42.644;23.274;2024-01-11T05:13:20;18.30;;;9.70;;
8919;SDS011;4495;42.644;23.274;2024-01-11T05:15:46;21.48;;;12.60;;
8919;SDS011;4495;42.644;23.274;2024-01-11T05:18:12;22.48;;;11.52;;
8919;SDS011;4495;42.644;23.274;2024-01-11T05:20:39;30.95;;;12.27;;
8919;SDS011;4495;42.644;23.274;2024-01-11T05:23:04;20.80;;;9.07;;
8919;SDS011;4495;42.644;23.274;2024-01-11T05:25:30;9.02;;;6.05;;
8919;SDS011;4495;42.644;23.274;2024-01-11T05:27:59;7.18;;;3.45;;
8919;SDS011;4495;42.644;23.274;2024-01-11T05:30:27;4.45;;;2.70;;
8919;SDS011;4495;42.644;23.274;2024-01-11T05:32:53;6.47;;;3.08;;
8919;SDS011;4495;42.644;23.274;2024-01-11T05:35:19;6.38;;;3.03;;
8919;SDS011;4495;42.644;23.274;2024-01-11T05:37:44;7.63;;;3.72;;
8919;SDS011;4495;42.644;23.274;2024-01-11T05:40:09;6.65;;;3.78;;
8919;SDS011;4495;42.644;23.274;2024-01-11T05:42:35;6.45;;;3.00;;
8919;SDS011;4495;42.644;23.274;2024-01-11T05:45:00;7.13;;;3.65;;
8919;SDS011;4495;42.644;23.274;2024-01-11T05:47:26;7.93;;;4.15;;
8919;SDS011;4495;42.644;23.274;2024-01-11T05:49:51;6.03;;;3.22;;
8919;SDS011;4495;42.644;23.274;2024-01-11T05:52:17;8.25;;;3.05;;
8919;SDS011;4495;42.644;23.274;2024-01-11T05:54:42;7.50;;;2.65;;
8919;SDS011;4495;42.644;23.274;2024-01-11T05:57:08;6.90;;;2.97;;
8919;SDS011;4495;42.644;23.274;2024-01-11T05:59:33;6.10;;;3.03;;
8919;SDS011;4495;42.644;23.274;2024-01-11T06:01:58;6.30;;;3.58;;
8919;SDS011;4495;42.644;23.274;2024-01-11T06:04:25;8.38;;;3.95;;
8919;SDS011;4495;42.644;23.274;2024-01-11T06:06:51;3.10;;;1.52;;
8919;SDS011;4495;42.644;23.274;2024-01-11T06:09:17;4.65;;;2.88;;
8919;SDS011;4495;42.644;23.274;2024-01-11T06:11:42;7.57;;;2.90;;
8919;SDS011;4495;42.644;23.274;2024-01-11T06:14:08;3.30;;;1.77;;
8919;SDS011;4495;42.644;23.274;2024-01-11T06:16:34;4.10;;;2.58;;
8919;SDS011;4495;42.644;23.274;2024-01-11T06:18:59;3.67;;;2.72;;
8919;SDS011;4495;42.644;23.274;2024-01-11T06:21:24;8.05;;;4.80;;
8919;SDS011;4495;42.644;23.274;2024-01-11T06:23:50;7.72;;;4.10;;
8919;SDS011;4495;42.644;23.274;2024-01-11T06:26:18;16.58;;;6.72;;
8919;SDS011;4495;42.644;23.274;2024-01-11T06:28:44;14.07;;;8.13;;
8919;SDS011;4495;42.644;23.274;2024-01-11T06:31:09;12.27;;;7.93;;
8919;SDS011;4495;42.644;23.274;2024-01-11T06:33:35;20.30;;;8.75;;
8919;SDS011;4495;42.644;23.274;2024-01-11T06:36:02;10.10;;;4.85;;
8919;SDS011;4495;42.644;23.274;2024-01-11T06:38:32;4.90;;;2.35;;
8919;SDS011;4495;42.644;23.274;2024-01-11T06:40:58;3.25;;;2.35;;
8919;SDS011;4495;42.644;23.274;2024-01-11T06:43:24;4.82;;;2.72;;
8919;SDS011;4495;42.644;23.274;2024-01-11T06:45:50;4.82;;;1.90;;
8919;SDS011;4495;42.644;23.274;2024-01-11T06:48:15;6.03;;;2.50;;
8919;SDS011;4495;42.644;23.274;2024-01-11T06:50:41;4.53;;;2.63;;
8919;SDS011;4495;42.644;23.274;2024-01-11T06:53:06;5.35;;;1.90;;
8919;SDS011;4495;42.644;23.274;2024-01-11T06:55:32;4.75;;;3.22;;
8919;SDS011;4495;42.644;23.274;2024-01-11T06:57:57;6.65;;;3.47;;
8919;SDS011;4495;42.644;23.274;2024-01-11T07:00:24;15.43;;;6.82;;
8919;SDS011;4495;42.644;23.274;2024-01-11T07:02:49;20.23;;;10.77;;
8919;SDS011;4495;42.644;23.274;2024-01-11T07:05:15;19.98;;;10.60;;
8919;SDS011;4495;42.644;23.274;2024-01-11T07:07:40;19.52;;;11.23;;
8919;SDS011;4495;42.644;23.274;2024-01-11T07:10:06;18.77;;;7.40;;
8919;SDS011;4495;42.644;23.274;2024-01-11T07:12:31;20.15;;;10.38;;
8919;SDS011;4495;42.644;23.274;2024-01-11T07:14:58;19.52;;;10.77;;
8919;SDS011;4495;42.644;23.274;2024-01-11T07:17:23;21.45;;;10.48;;
8919;SDS011;4495;42.644;23.274;2024-01-11T07:19:49;20.15;;;10.15;;
8919;SDS011;4495;42.644;23.274;2024-01-11T07:22:14;21.00;;;10.45;;
8919;SDS011;4495;42.644;23.274;2024-01-11T07:24:39;30.20;;;14.73;;
8919;SDS011;4495;42.644;23.274;2024-01-11T07:27:05;34.97;;;15.80;;
8919;SDS011;4495;42.644;23.274;2024-01-11T07:29:31;27.98;;;12.27;;
8919;SDS011;4495;42.644;23.274;2024-01-11T07:31:58;24.80;;;11.73;;
8919;SDS011;4495;42.644;23.274;2024-01-11T07:34:23;24.65;;;13.50;;
8919;SDS011;4495;42.644;23.274;2024-01-11T07:36:49;28.13;;;13.77;;
8919;SDS011;4495;42.644;23.274;2024-01-11T07:39:15;22.30;;;13.88;;
8919;SDS011;4495;42.644;23.274;2024-01-11T07:41:41;27.75;;;14.60;;
8919;SDS011;4495;42.644;23.274;2024-01-11T07:44:07;26.42;;;14.05;;
8919;SDS011;4495;42.644;23.274;2024-01-11T07:46:32;22.10;;;13.45;;
8919;SDS011;4495;42.644;23.274;2024-01-11T07:48:58;32.03;;;14.60;;
8919;SDS011;4495;42.644;23.274;2024-01-11T07:51:24;31.48;;;12.95;;
8919;SDS011;4495;42.644;23.274;2024-01-11T07:53:50;27.33;;;13.18;;
8919;SDS011;4495;42.644;23.274;2024-01-11T07:56:15;27.73;;;12.80;;
8919;SDS011;4495;42.644;23.274;2024-01-11T07:58:42;31.75;;;13.73;;
8919;SDS011;4495;42.644;23.274;2024-01-11T08:01:07;23.35;;;11.82;;
8919;SDS011;4495;42.644;23.274;2024-01-11T08:03:34;23.83;;;11.27;;
8919;SDS011;4495;42.644;23.274;2024-01-11T08:06:00;21.10;;;12.10;;
8919;SDS011;4495;42.644;23.274;2024-01-11T08:08:26;20.15;;;11.05;;
8919;SDS011;4495;42.644;23.274;2024-01-11T08:10:51;20.50;;;12.18;;
8919;SDS011;4495;42.644;23.274;2024-01-11T08:13:17;24.90;;;11.38;;
8919;SDS011;4495;42.644;23.274;2024-01-11T08:15:43;27.15;;;11.88;;
8919;SDS011;4495;42.644;23.274;2024-01-11T08:18:08;24.50;;;13.27;;
8919;SDS011;4495;42.644;23.274;2024-01-11T08:20:34;27.30;;;12.52;;
8919;SDS011;4495;42.644;23.274;2024-01-11T08:22:59;27.25;;;13.02;;
8919;SDS011;4495;42.644;23.274;2024-01-11T08:25:25;26.42;;;13.15;;
8919;SDS011;4495;42.644;23.274;2024-01-11T08:27:50;28.50;;;13.38;;
8919;SDS011;4495;42.644;23.274;2024-01-11T08:30:16;25.85;;;13.07;;
8919;SDS011;4495;42.644;23.274;2024-01-11T08:32:41;29.10;;;13.05;;
8919;SDS011;4495;42.644;23.274;2024-01-11T08:35:11;24.80;;;13.32;;
8919;SDS011;4495;42.644;23.274;2024-01-11T08:37:37;32.97;;;14.68;;
8919;SDS011;4495;42.644;23.274;2024-01-11T08:40:03;24.08;;;13.05;;
8919;SDS011;4495;42.644;23.274;2024-01-11T08:42:32;23.92;;;12.98;;
8919;SDS011;4495;42.644;23.274;2024-01-11T08:44:58;28.33;;;13.05;;
8919;SDS011;4495;42.644;23.274;2024-01-11T08:47:23;30.10;;;13.45;;
8919;SDS011;4495;42.644;23.274;2024-01-11T08:49:49;24.27;;;13.00;;
8919;SDS011;4495;42.644;23.274;2024-01-11T08:52:15;27.88;;;14.00;;
8919;SDS011;4495;42.644;23.274;2024-01-11T08:54:40;22.75;;;10.20;;
8919;SDS011;4495;42.644;23.274;2024-01-11T08:57:05;25.85;;;13.32;;
8919;SDS011;4495;42.644;23.274;2024-01-11T08:59:31;28.23;;;13.32;;
8919;SDS011;4495;42.644;23.274;2024-01-11T09:01:57;20.30;;;12.23;;
8919;SDS011;4495;42.644;23.274;2024-01-11T09:04:23;31.02;;;13.75;;
8919;SDS011;4495;42.644;23.274;2024-01-11T09:06:48;20.42;;;11.63;;
8919;SDS011;4495;42.644;23.274;2024-01-11T09:09:14;22.92;;;11.95;;
8919;SDS011;4495;42.644;23.274;2024-01-11T09:11:40;27.92;;;13.20;;
8919;SDS011;4495;42.644;23.274;2024-01-11T09:14:06;24.35;;;14.43;;
8919;SDS011;4495;42.644;23.274;2024-01-11T09:16:32;30.35;;;13.07;;
8919;SDS011;4495;42.644;23.274;2024-01-11T09:18:58;29.60;;;15.57;;
8919;SDS011;4495;42.644;23.274;2024-01-11T09:21:25;29.55;;;14.70;;
8919;SDS011;4495;42.644;23.274;2024-01-11T09:23:51;21.38;;;13.13;;
8919;SDS011;4495;42.644;23.274;2024-01-11T09:26:16;23.95;;;12.18;;
8919;SDS011;4495;42.644;23.274;2024-01-11T09:28:42;21.08;;;11.20;;
8919;SDS011;4495;42.644;23.274;2024-01-11T09:31:07;24.90;;;12.15;;
8919;SDS011;4495;42.644;23.274;2024-01-11T09:33:33;29.48;;;13.82;;
8919;SDS011;4495;42.644;23.274;2024-01-11T09:35:59;21.02;;;11.40;;
8919;SDS011;4495;42.644;23.274;2024-01-11T09:38:24;28.17;;;13.57;;
8919;SDS011;4495;42.644;23.274;2024-01-11T09:41:03;30.00;;;14.60;;
8919;SDS011;4495;42.644;23.274;2024-01-11T09:43:35;23.67;;;11.43;;
8919;SDS011;4495;42.644;23.274;2024-01-11T09:46:04;22.75;;;12.82;;
8919;SDS011;4495;42.644;23.274;2024-01-11T09:48:34;29.15;;;15.35;;
8919;SDS011;4495;42.644;23.274;2024-01-11T09:51:01;35.20;;;16.08;;
8919;SDS011;4495;42.644;23.274;2024-01-11T09:53:28;30.33;;;15.50;;
8919;SDS011;4495;42.644;23.274;2024-01-11T09:55:56;38.15;;;16.80;;
8919;SDS011;4495;42.644;23.274;2024-01-11T09:58:23;34.78;;;17.08;;
8919;SDS011;4495;42.644;23.274;2024-01-11T10:00:49;30.63;;;16.55;;
8919;SDS011;4495;42.644;23.274;2024-01-11T10:03:19;25.75;;;14.63;;
8919;SDS011;4495;42.644;23.274;2024-01-11T10:05:45;29.50;;;15.82;;
8919;SDS011;4495;42.644;23.274;2024-01-11T10:08:14;30.98;;;16.27;;
8919;SDS011;4495;42.644;23.274;2024-01-11T10:10:40;33.55;;;15.68;;
8919;SDS011;4495;42.644;23.274;2024-01-11T10:13:06;26.90;;;14.50;;
8919;SDS011;4495;42.644;23.274;2024-01-11T10:15:31;29.08;;;17.30;;
8919;SDS011;4495;42.644;23.274;2024-01-11T10:17:56;29.70;;;16.13;;
8919;SDS011;4495;42.644;23.274;2024-01-11T10:20:22;36.33;;;19.75;;
8919;SDS011;4495;42.644;23.274;2024-01-11T10:22:49;31.60;;;16.48;;
8919;SDS011;4495;42.644;23.274;2024-01-11T10:25:16;36.78;;;16.45;;
8919;SDS011;4495;42.644;23.274;2024-01-11T10:27:43;35.72;;;16.98;;
8919;SDS011;4495;42.644;23.274;2024-01-11T10:30:10;36.45;;;16.42;;
8919;SDS011;4495;42.644;23.274;2024-01-11T10:32:44;31.92;;;15.32;;
8919;SDS011;4495;42.644;23.274;2024-01-11T10:35:11;30.30;;;16.00;;
8919;SDS011;4495;42.644;23.274;2024-01-11T10:37:36;31.95;;;16.20;;
8919;SDS011;4495;42.644;23.274;2024-01-11T10:40:05;29.83;;;15.02;;
8919;SDS011;4495;42.644;23.274;2024-01-11T10:42:36;31.25;;;17.45;;
8919;SDS011;4495;42.644;23.274;2024-01-11T10:45:08;30.83;;;17.10;;
8919;SDS011;4495;42.644;23.274;2024-01-11T10:47:39;29.58;;;15.88;;
8919;SDS011;4495;42.644;23.274;2024-01-11T10:50:18;33.08;;;17.45;;
8919;SDS011;4495;42.644;23.274;2024-01-11T10:52:49;37.72;;;17.95;;
8919;SDS011;4495;42.644;23.274;2024-01-11T10:55:42;33.15;;;17.38;;
8919;SDS011;4495;42.644;23.274;2024-01-11T10:58:09;39.40;;;17.17;;
8919;SDS011;4495;42.644;23.274;2024-01-11T11:00:36;37.65;;;18.40;;
8919;SDS011;4495;42.644;23.274;2024-01-11T11:03:03;42.88;;;20.02;;
8919;SDS011;4495;42.644;23.274;2024-01-11T11:05:31;32.70;;;17.25;;
8919;SDS011;4495;42.644;23.274;2024-01-11T11:08:00;37.92;;;18.65;;
8919;SDS011;4495;42.644;23.274;2024-01-11T11:10:27;35.92;;;18.85;;
8919;SDS011;4495;42.644;23.274;2024-01-11T11:12:53;35.15;;;18.85;;
8919;SDS011;4495;42.644;23.274;2024-01-11T11:15:23;40.78;;;21.33;;
8919;SDS011;4495;42.644;23.274;2024-01-11T11:17:49;36.65;;;19.02;;
8919;SDS011;4495;42.644;23.274;2024-01-11T11:20:15;38.70;;;19.08;;
8919;SDS011;4495;42.644;23.274;2024-01-11T11:22:41;34.00;;;17.58;;
8919;SDS011;4495;42.644;23.274;2024-01-11T11:25:10;33.97;;;17.20;;
8919;SDS011;4495;42.644;23.274;2024-01-11T11:27:49;41.25;;;16.33;;
8919;SDS011;4495;42.644;23.274;2024-01-11T11:30:14;37.22;;;18.08;;
8919;SDS011;4495;42.644;23.274;2024-01-11T11:32:43;34.33;;;17.10;;
8919;SDS011;4495;42.644;23.274;2024-01-11T11:35:09;37.20;;;18.63;;
8919;SDS011;4495;42.644;23.274;2024-01-11T11:37:37;42.40;;;18.73;;
8919;SDS011;4495;42.644;23.274;2024-01-11T11:40:13;37.33;;;18.10;;
8919;SDS011;4495;42.644;23.274;2024-01-11T11:42:39;35.22;;;17.83;;
8919;SDS011;4495;42.644;23.274;2024-01-11T11:45:05;39.72;;;20.08;;
8919;SDS011;4495;42.644;23.274;2024-01-11T11:47:36;37.00;;;19.60;;
8919;SDS011;4495;42.644;23.274;2024-01-11T11:52:33;38.05;;;19.75;;
8919;SDS011;4495;42.644;23.274;2024-01-11T11:55:00;43.30;;;19.40;;
8919;SDS011;4495;42.644;23.274;2024-01-11T11:57:26;34.45;;;18.80;;
8919;SDS011;4495;42.644;23.274;2024-01-11T11:59:54;32.47;;;17.60;;
8919;SDS011;4495;42.644;23.274;2024-01-11T12:02:22;36.10;;;18.10;;
8919;SDS011;4495;42.644;23.274;2024-01-11T12:04:48;36.88;;;17.83;;
8919;SDS011;4495;42.644;23.274;2024-01-11T12:07:14;28.63;;;13.55;;
8919;SDS011;4495;42.644;23.274;2024-01-11T12:09:40;28.73;;;15.00;;
8919;SDS011;4495;42.644;23.274;2024-01-11T12:12:06;35.38;;;19.08;;
8919;SDS011;4495;42.644;23.274;2024-01-11T12:14:31;39.72;;;18.15;;
8919;SDS011;4495;42.644;23.274;2024-01-11T12:16:57;33.83;;;17.05;;
8919;SDS011;4495;42.644;23.274;2024-01-11T12:19:27;29.20;;;14.10;;
8919;SDS011;4495;42.644;23.274;2024-01-11T12:21:53;25.85;;;14.27;;
8919;SDS011;4495;42.644;23.274;2024-01-11T12:24:19;35.03;;;16.52;;
8919;SDS011;4495;42.644;23.274;2024-01-11T12:29:12;27.05;;;13.32;;
8919;SDS011;4495;42.644;23.274;2024-01-11T12:31:38;31.63;;;16.17;;
8919;SDS011;4495;42.644;23.274;2024-01-11T12:34:03;33.08;;;14.48;;
8919;SDS011;4495;42.644;23.274;2024-01-11T12:36:30;27.35;;;12.30;;
8919;SDS011;4495;42.644;23.274;2024-01-11T12:38:57;32.72;;;15.35;;
8919;SDS011;4495;42.644;23.274;2024-01-11T12:41:23;30.15;;;13.48;;
8919;SDS011;4495;42.644;23.274;2024-01-11T12:43:49;26.30;;;13.55;;
8919;SDS011;4495;42.644;23.274;2024-01-11T12:46:15;27.83;;;14.27;;
8919;SDS011;4495;42.644;23.274;2024-01-11T12:48:41;25.60;;;14.55;;
8919;SDS011;4495;42.644;23.274;2024-01-11T12:51:07;24.00;;;11.35;;
8919;SDS011;4495;42.644;23.274;2024-01-11T12:53:33;26.27;;;13.68;;
8919;SDS011;4495;42.644;23.274;2024-01-11T12:56:07;74.22;;;25.70;;
8919;SDS011;4495;42.644;23.274;2024-01-11T12:58:39;16.95;;;8.25;;
8919;SDS011;4495;42.644;23.274;2024-01-11T13:01:08;16.13;;;7.80;;
8919;SDS011;4495;42.644;23.274;2024-01-11T13:03:34;14.02;;;7.40;;
8919;SDS011;4495;42.644;23.274;2024-01-11T13:06:03;16.85;;;8.77;;
8919;SDS011;4495;42.644;23.274;2024-01-11T13:08:33;14.48;;;6.53;;
8919;SDS011;4495;42.644;23.274;2024-01-11T13:11:04;14.80;;;7.93;;
8919;SDS011;4495;42.644;23.274;2024-01-11T13:13:32;15.85;;;7.40;;
8919;SDS011;4495;42.644;23.274;2024-01-11T13:16:00;17.88;;;8.15;;
8919;SDS011;4495;42.644;23.274;2024-01-11T13:18:27;23.92;;;10.57;;
8919;SDS011;4495;42.644;23.274;2024-01-11T13:20:52;19.00;;;8.43;;
8919;SDS011;4495;42.644;23.274;2024-01-11T13:23:18;18.15;;;7.30;;
8919;SDS011;4495;42.644;23.274;2024-01-11T13:25:46;11.43;;;6.35;;
8919;SDS011;4495;42.644;23.274;2024-01-11T13:28:14;9.75;;;5.38;;
8919;SDS011;4495;42.644;23.274;2024-01-11T13:30:40;12.35;;;5.22;;
8919;SDS011;4495;42.644;23.274;2024-01-11T13:33:07;11.15;;;5.00;;
8919;SDS011;4495;42.644;23.274;2024-01-11T13:35:34;9.50;;;4.68;;
8919;SDS011;4495;42.644;23.274;2024-01-11T13:38:00;11.63;;;5.13;;
8919;SDS011;4495;42.644;23.274;2024-01-11T13:40:25;13.90;;;6.63;;
8919;SDS011;4495;42.644;23.274;2024-01-11T13:42:54;15.05;;;6.18;;
8919;SDS011;4495;42.644;23.274;2024-01-11T13:47:46;6.57;;;2.97;;
8919;SDS011;4495;42.644;23.274;2024-01-11T13:50:11;9.50;;;3.60;;
8919;SDS011;4495;42.644;23.274;2024-01-11T13:52:37;10.60;;;4.57;;
8919;SDS011;4495;42.644;23.274;2024-01-11T13:55:03;5.85;;;2.88;;
8919;SDS011;4495;42.644;23.274;2024-01-11T13:57:29;7.35;;;4.13;;
8919;SDS011;4495;42.644;23.274;2024-01-11T13:59:54;5.55;;;4.20;;
8919;SDS011;4495;42.644;23.274;2024-01-11T14:02:20;7.80;;;2.47;;
8919;SDS011;4495;42.644;23.274;2024-01-11T14:04:46;8.43;;;4.60;;
8919;SDS011;4495;42.644;23.274;2024-01-11T14:07:11;13.63;;;5.07;;
8919;SDS011;4495;42.644;23.274;2024-01-11T14:09:37;8.32;;;4.40;;
8919;SDS011;4495;42.644;23.274;2024-01-11T14:12:02;5.60;;;2.58;;
8919;SDS011;4495;42.644;23.274;2024-01-11T14:14:28;6.85;;;3.45;;
8919;SDS011;4495;42.644;23.274;2024-01-11T14:16:53;7.95;;;3.92;;
8919;SDS011;4495;42.644;23.274;2024-01-11T14:19:19;9.13;;;3.88;;
8919;SDS011;4495;42.644;23.274;2024-01-11T14:21:44;6.50;;;3.45;;
8919;SDS011;4495;42.644;23.274;2024-01-11T14:24:10;7.15;;;3.92;;
8919;SDS011;4495;42.644;23.274;2024-01-11T14:26:35;3.17;;;2.00;;
8919;SDS011;4495;42.644;23.274;2024-01-11T14:29:00;7.97;;;3.40;;
8919;SDS011;4495;42.644;23.274;2024-01-11T14:31:26;7.55;;;3.13;;
8919;SDS011;4495;42.644;23.274;2024-01-11T14:33:52;8.32;;;4.20;;
8919;SDS011;4495;42.644;23.274;2024-01-11T14:36:17;6.68;;;3.45;;
8919;SDS011;4495;42.644;23.274;2024-01-11T14:38:43;5.35;;;2.25;;
8919;SDS011;4495;42.644;23.274;2024-01-11T14:41:08;5.43;;;2.50;;
8919;SDS011;4495;42.644;23.274;2024-01-11T14:43:37;4.25;;;2.10;;
8919;SDS011;4495;42.644;23.274;2024-01-11T14:46:02;5.18;;;2.72;;
8919;SDS011;4495;42.644;23.274;2024-01-11T14:48:28;4.75;;;2.33;;
8919;SDS011;4495;42.644;23.274;2024-01-11T14:50:56;5.85;;;2.58;;
8919;SDS011;4495;42.644;23.274;2024-01-11T14:53:24;4.90;;;2.58;;